sensor_id;sensor_type;location;lat;lon;timestamp;P1;durP1;ratioP1;P2;durP2;ratioP2
69754;SDS011;57023;52.218;5.158;2023-04-07T00:01:20;17.80;;;7.72;;
69754;SDS011;57023;52.218;5.158;2023-04-07T00:03:46;20.83;;;7.68;;
69754;SDS011;57023;52.218;5.158;2023-04-07T00:06:11;18.42;;;7.03;;
69754;SDS011;57023;52.218;5.158;2023-04-07T00:08:39;22.38;;;7.57;;
69754;SDS011;57023;52.218;5.158;2023-04-07T00:11:05;17.10;;;6.18;;
69754;SDS011;57023;52.218;5.158;2023-04-07T00:13:31;16.65;;;6.97;;
69754;SDS011;57023;52.218;5.158;2023-04-07T00:15:56;18.80;;;6.72;;
69754;SDS011;57023;52.218;5.158;2023-04-07T00:18:21;16.15;;;7.07;;
69754;SDS011;57023;52.218;5.158;2023-04-07T00:20:47;18.77;;;7.35;;
69754;SDS011;57023;52.218;5.158;2023-04-07T00:23:15;18.23;;;6.75;;
69754;SDS011;57023;52.218;5.158;2023-04-07T00:25:40;16.25;;;7.43;;
69754;SDS011;57023;52.218;5.158;2023-04-07T00:28:05;16.00;;;7.03;;
69754;SDS011;57023;52.218;5.158;2023-04-07T00:30:31;20.40;;;7.47;;
69754;SDS011;57023;52.218;5.158;2023-04-07T00:32:56;17.55;;;7.40;;
69754;SDS011;57023;52.218;5.158;2023-04-07T00:35:21;18.92;;;7.72;;
69754;SDS011;57023;52.218;5.158;2023-04-07T00:37:47;17.55;;;7.85;;
69754;SDS011;57023;52.218;5.158;2023-04-07T00:40:12;22.45;;;8.15;;
69754;SDS011;57023;52.218;5.158;2023-04-07T00:42:38;18.05;;;7.93;;
69754;SDS011;57023;52.218;5.158;2023-04-07T00:45:03;17.67;;;8.13;;
69754;SDS011;57023;52.218;5.158;2023-04-07T00:47:29;24.23;;;8.60;;
69754;SDS011;57023;52.218;5.158;2023-04-07T00:49:54;22.65;;;8.57;;
69754;SDS011;57023;52.218;5.158;2023-04-07T00:52:20;19.63;;;9.18;;
69754;SDS011;57023;52.218;5.158;2023-04-07T00:54:53;22.63;;;8.55;;
69754;SDS011;57023;52.218;5.158;2023-04-07T00:57:18;19.83;;;7.78;;
69754;SDS011;57023;52.218;5.158;2023-04-07T00:59:44;20.73;;;8.88;;
69754;SDS011;57023;52.218;5.158;2023-04-07T01:02:11;20.33;;;7.80;;
69754;SDS011;57023;52.218;5.158;2023-04-07T01:07:33;19.73;;;8.48;;
69754;SDS011;57023;52.218;5.158;2023-04-07T01:10:07;21.98;;;9.20;;
69754;SDS011;57023;52.218;5.158;2023-04-07T01:15:11;18.85;;;9.13;;
69754;SDS011;57023;52.218;5.158;2023-04-07T01:17:41;19.58;;;9.02;;
69754;SDS011;57023;52.218;5.158;2023-04-07T01:20:08;24.05;;;8.63;;
69754;SDS011;57023;52.218;5.158;2023-04-07T01:22:39;25.02;;;9.38;;
69754;SDS011;57023;52.218;5.158;2023-04-07T01:30:30;24.75;;;9.45;;
69754;SDS011;57023;52.218;5.158;2023-04-07T01:32:57;18.88;;;8.82;;
69754;SDS011;57023;52.218;5.158;2023-04-07T01:35:23;18.58;;;8.98;;
69754;SDS011;57023;52.218;5.158;2023-04-07T01:37:49;18.48;;;8.18;;
69754;SDS011;57023;52.218;5.158;2023-04-07T01:40:15;20.40;;;8.52;;
69754;SDS011;57023;52.218;5.158;2023-04-07T01:42:41;23.20;;;8.50;;
69754;SDS011;57023;52.218;5.158;2023-04-07T01:45:07;24.13;;;8.27;;
69754;SDS011;57023;52.218;5.158;2023-04-07T01:47:34;21.58;;;7.75;;
69754;SDS011;57023;52.218;5.158;2023-04-07T01:50:02;19.95;;;7.97;;
69754;SDS011;57023;52.218;5.158;2023-04-07T01:52:29;18.77;;;7.93;;
69754;SDS011;57023;52.218;5.158;2023-04-07T01:54:55;17.45;;;7.00;;
69754;SDS011;57023;52.218;5.158;2023-04-07T01:57:21;19.83;;;7.25;;
69754;SDS011;57023;52.218;5.158;2023-04-07T01:59:47;18.05;;;7.18;;
69754;SDS011;57023;52.218;5.158;2023-04-07T02:02:12;18.25;;;7.25;;
69754;SDS011;57023;52.218;5.158;2023-04-07T02:04:48;15.40;;;6.57;;
69754;SDS011;57023;52.218;5.158;2023-04-07T02:07:26;19.00;;;7.30;;
69754;SDS011;57023;52.218;5.158;2023-04-07T02:09:56;20.23;;;6.90;;
69754;SDS011;57023;52.218;5.158;2023-04-07T02:12:23;19.65;;;6.72;;
69754;SDS011;57023;52.218;5.158;2023-04-07T02:14:51;17.73;;;6.93;;
69754;SDS011;57023;52.218;5.158;2023-04-07T02:17:16;18.27;;;6.80;;
69754;SDS011;57023;52.218;5.158;2023-04-07T02:19:42;17.05;;;6.18;;
69754;SDS011;57023;52.218;5.158;2023-04-07T02:22:09;20.27;;;6.75;;
69754;SDS011;57023;52.218;5.158;2023-04-07T02:24:35;19.67;;;6.53;;
69754;SDS011;57023;52.218;5.158;2023-04-07T02:27:00;13.88;;;6.30;;
69754;SDS011;57023;52.218;5.158;2023-04-07T02:29:25;16.98;;;6.28;;
69754;SDS011;57023;52.218;5.158;2023-04-07T02:31:51;17.83;;;6.78;;
69754;SDS011;57023;52.218;5.158;2023-04-07T02:34:16;18.85;;;5.78;;
69754;SDS011;57023;52.218;5.158;2023-04-07T02:36:41;16.95;;;6.43;;
69754;SDS011;57023;52.218;5.158;2023-04-07T02:39:08;19.00;;;6.35;;
69754;SDS011;57023;52.218;5.158;2023-04-07T02:41:33;19.55;;;6.43;;
69754;SDS011;57023;52.218;5.158;2023-04-07T02:43:58;17.15;;;6.15;;
69754;SDS011;57023;52.218;5.158;2023-04-07T02:46:24;15.63;;;6.30;;
69754;SDS011;57023;52.218;5.158;2023-04-07T02:48:49;24.20;;;6.38;;
69754;SDS011;57023;52.218;5.158;2023-04-07T02:51:17;12.77;;;5.53;;
69754;SDS011;57023;52.218;5.158;2023-04-07T02:53:43;21.63;;;6.32;;
69754;SDS011;57023;52.218;5.158;2023-04-07T02:56:08;17.30;;;5.90;;
69754;SDS011;57023;52.218;5.158;2023-04-07T02:58:33;24.50;;;6.95;;
69754;SDS011;57023;52.218;5.158;2023-04-07T03:00:58;18.85;;;7.07;;
69754;SDS011;57023;52.218;5.158;2023-04-07T03:03:24;18.65;;;6.50;;
69754;SDS011;57023;52.218;5.158;2023-04-07T03:05:49;20.23;;;7.22;;
69754;SDS011;57023;52.218;5.158;2023-04-07T03:08:14;20.95;;;6.95;;
69754;SDS011;57023;52.218;5.158;2023-04-07T03:10:40;21.05;;;6.90;;
69754;SDS011;57023;52.218;5.158;2023-04-07T03:13:05;17.70;;;6.45;;
69754;SDS011;57023;52.218;5.158;2023-04-07T03:15:33;18.58;;;6.55;;
69754;SDS011;57023;52.218;5.158;2023-04-07T03:17:58;17.48;;;6.75;;
69754;SDS011;57023;52.218;5.158;2023-04-07T03:20:26;20.00;;;6.63;;
69754;SDS011;57023;52.218;5.158;2023-04-07T03:22:51;19.20;;;6.85;;
69754;SDS011;57023;52.218;5.158;2023-04-07T03:25:19;18.67;;;6.40;;
69754;SDS011;57023;52.218;5.158;2023-04-07T03:27:45;16.10;;;6.80;;
69754;SDS011;57023;52.218;5.158;2023-04-07T03:30:10;15.05;;;6.50;;
69754;SDS011;57023;52.218;5.158;2023-04-07T03:32:36;19.13;;;7.65;;
69754;SDS011;57023;52.218;5.158;2023-04-07T03:35:01;22.35;;;7.70;;
69754;SDS011;57023;52.218;5.158;2023-04-07T03:37:29;16.67;;;7.32;;
69754;SDS011;57023;52.218;5.158;2023-04-07T03:39:55;18.52;;;7.50;;
69754;SDS011;57023;52.218;5.158;2023-04-07T03:42:20;18.95;;;7.38;;
69754;SDS011;57023;52.218;5.158;2023-04-07T03:44:45;16.83;;;7.47;;
69754;SDS011;57023;52.218;5.158;2023-04-07T03:47:11;16.48;;;7.38;;
69754;SDS011;57023;52.218;5.158;2023-04-07T03:49:36;18.50;;;8.25;;
69754;SDS011;57023;52.218;5.158;2023-04-07T03:52:02;19.90;;;8.10;;
69754;SDS011;57023;52.218;5.158;2023-04-07T03:54:29;17.10;;;7.70;;
69754;SDS011;57023;52.218;5.158;2023-04-07T03:56:54;18.77;;;7.20;;
69754;SDS011;57023;52.218;5.158;2023-04-07T03:59:21;21.58;;;7.93;;
69754;SDS011;57023;52.218;5.158;2023-04-07T04:01:46;16.35;;;7.43;;
69754;SDS011;57023;52.218;5.158;2023-04-07T04:04:12;17.95;;;7.45;;
69754;SDS011;57023;52.218;5.158;2023-04-07T04:06:37;15.90;;;7.30;;
69754;SDS011;57023;52.218;5.158;2023-04-07T04:09:02;15.43;;;6.45;;
69754;SDS011;57023;52.218;5.158;2023-04-07T04:11:28;16.27;;;6.88;;
69754;SDS011;57023;52.218;5.158;2023-04-07T04:13:53;13.85;;;6.15;;
69754;SDS011;57023;52.218;5.158;2023-04-07T04:16:18;14.43;;;6.20;;
69754;SDS011;57023;52.218;5.158;2023-04-07T04:18:44;15.57;;;5.85;;
69754;SDS011;57023;52.218;5.158;2023-04-07T04:21:09;17.85;;;8.02;;
69754;SDS011;57023;52.218;5.158;2023-04-07T04:23:35;12.48;;;6.35;;
69754;SDS011;57023;52.218;5.158;2023-04-07T04:26:00;10.13;;;5.07;;
69754;SDS011;57023;52.218;5.158;2023-04-07T04:28:27;16.45;;;5.90;;
69754;SDS011;57023;52.218;5.158;2023-04-07T04:30:53;11.65;;;5.95;;
69754;SDS011;57023;52.218;5.158;2023-04-07T04:33:18;13.73;;;6.07;;
69754;SDS011;57023;52.218;5.158;2023-04-07T04:35:44;15.13;;;6.65;;
69754;SDS011;57023;52.218;5.158;2023-04-07T04:38:11;15.38;;;6.07;;
69754;SDS011;57023;52.218;5.158;2023-04-07T04:40:40;15.95;;;5.40;;
69754;SDS011;57023;52.218;5.158;2023-04-07T04:43:06;10.90;;;5.10;;
69754;SDS011;57023;52.218;5.158;2023-04-07T04:45:31;11.20;;;5.10;;
69754;SDS011;57023;52.218;5.158;2023-04-07T04:47:57;14.48;;;5.25;;
69754;SDS011;57023;52.218;5.158;2023-04-07T04:50:22;14.43;;;5.25;;
69754;SDS011;57023;52.218;5.158;2023-04-07T04:52:48;11.32;;;4.68;;
69754;SDS011;57023;52.218;5.158;2023-04-07T04:55:13;11.38;;;4.70;;
69754;SDS011;57023;52.218;5.158;2023-04-07T04:57:38;10.63;;;4.95;;
69754;SDS011;57023;52.218;5.158;2023-04-07T05:00:05;10.00;;;4.47;;
69754;SDS011;57023;52.218;5.158;2023-04-07T05:02:32;15.38;;;5.43;;
69754;SDS011;57023;52.218;5.158;2023-04-07T05:04:57;9.07;;;5.20;;
69754;SDS011;57023;52.218;5.158;2023-04-07T05:07:22;13.50;;;4.90;;
69754;SDS011;57023;52.218;5.158;2023-04-07T05:09:48;14.85;;;5.53;;
69754;SDS011;57023;52.218;5.158;2023-04-07T05:12:14;12.48;;;5.50;;
69754;SDS011;57023;52.218;5.158;2023-04-07T05:14:39;17.48;;;5.97;;
69754;SDS011;57023;52.218;5.158;2023-04-07T05:17:04;16.35;;;6.07;;
69754;SDS011;57023;52.218;5.158;2023-04-07T05:19:30;12.30;;;5.57;;
69754;SDS011;57023;52.218;5.158;2023-04-07T05:21:56;15.43;;;5.65;;
69754;SDS011;57023;52.218;5.158;2023-04-07T05:24:25;12.05;;;5.45;;
69754;SDS011;57023;52.218;5.158;2023-04-07T05:26:52;15.63;;;5.72;;
69754;SDS011;57023;52.218;5.158;2023-04-07T05:29:17;16.48;;;5.55;;
69754;SDS011;57023;52.218;5.158;2023-04-07T05:31:42;12.90;;;4.85;;
69754;SDS011;57023;52.218;5.158;2023-04-07T05:34:08;13.93;;;5.18;;
69754;SDS011;57023;52.218;5.158;2023-04-07T05:36:33;12.18;;;5.20;;
69754;SDS011;57023;52.218;5.158;2023-04-07T05:38:59;11.75;;;4.68;;
69754;SDS011;57023;52.218;5.158;2023-04-07T05:41:27;12.10;;;5.55;;
69754;SDS011;57023;52.218;5.158;2023-04-07T05:43:52;10.80;;;5.13;;
69754;SDS011;57023;52.218;5.158;2023-04-07T05:46:20;12.15;;;6.10;;
69754;SDS011;57023;52.218;5.158;2023-04-07T05:48:45;16.30;;;5.78;;
69754;SDS011;57023;52.218;5.158;2023-04-07T05:51:11;16.65;;;6.50;;
69754;SDS011;57023;52.218;5.158;2023-04-07T05:53:36;16.88;;;6.55;;
69754;SDS011;57023;52.218;5.158;2023-04-07T05:56:04;18.30;;;6.22;;
69754;SDS011;57023;52.218;5.158;2023-04-07T05:58:30;15.88;;;6.03;;
69754;SDS011;57023;52.218;5.158;2023-04-07T06:00:55;16.13;;;6.30;;
69754;SDS011;57023;52.218;5.158;2023-04-07T06:03:21;17.65;;;6.70;;
69754;SDS011;57023;52.218;5.158;2023-04-07T06:05:46;16.63;;;6.75;;
69754;SDS011;57023;52.218;5.158;2023-04-07T06:08:11;18.63;;;7.45;;
69754;SDS011;57023;52.218;5.158;2023-04-07T06:10:40;17.67;;;6.78;;
69754;SDS011;57023;52.218;5.158;2023-04-07T06:13:05;17.42;;;6.68;;
69754;SDS011;57023;52.218;5.158;2023-04-07T06:15:31;17.90;;;6.60;;
69754;SDS011;57023;52.218;5.158;2023-04-07T06:17:59;17.05;;;6.90;;
69754;SDS011;57023;52.218;5.158;2023-04-07T06:20:24;20.35;;;7.05;;
69754;SDS011;57023;52.218;5.158;2023-04-07T06:22:51;19.13;;;7.07;;
69754;SDS011;57023;52.218;5.158;2023-04-07T06:25:17;16.50;;;7.35;;
69754;SDS011;57023;52.218;5.158;2023-04-07T06:27:42;13.82;;;6.07;;
69754;SDS011;57023;52.218;5.158;2023-04-07T06:30:08;19.10;;;6.65;;
69754;SDS011;57023;52.218;5.158;2023-04-07T06:32:34;14.25;;;6.47;;
69754;SDS011;57023;52.218;5.158;2023-04-07T06:34:59;13.18;;;6.03;;
69754;SDS011;57023;52.218;5.158;2023-04-07T06:37:25;17.50;;;6.60;;
69754;SDS011;57023;52.218;5.158;2023-04-07T06:39:50;18.25;;;6.30;;
69754;SDS011;57023;52.218;5.158;2023-04-07T06:42:15;15.35;;;6.18;;
69754;SDS011;57023;52.218;5.158;2023-04-07T06:44:41;17.15;;;6.65;;
69754;SDS011;57023;52.218;5.158;2023-04-07T06:47:06;18.95;;;6.97;;
69754;SDS011;57023;52.218;5.158;2023-04-07T06:49:33;16.20;;;6.18;;
69754;SDS011;57023;52.218;5.158;2023-04-07T06:51:58;19.98;;;6.57;;
69754;SDS011;57023;52.218;5.158;2023-04-07T06:54:24;20.38;;;6.15;;
69754;SDS011;57023;52.218;5.158;2023-04-07T06:56:49;16.67;;;6.47;;
69754;SDS011;57023;52.218;5.158;2023-04-07T06:59:15;14.73;;;6.10;;
69754;SDS011;57023;52.218;5.158;2023-04-07T07:01:40;20.80;;;7.10;;
69754;SDS011;57023;52.218;5.158;2023-04-07T07:04:06;14.70;;;5.95;;
69754;SDS011;57023;52.218;5.158;2023-04-07T07:06:31;16.95;;;6.07;;
69754;SDS011;57023;52.218;5.158;2023-04-07T07:08:59;18.00;;;5.43;;
69754;SDS011;57023;52.218;5.158;2023-04-07T07:13:52;18.20;;;5.50;;
69754;SDS011;57023;52.218;5.158;2023-04-07T07:16:17;17.02;;;5.63;;
69754;SDS011;57023;52.218;5.158;2023-04-07T07:18:42;15.10;;;5.15;;
69754;SDS011;57023;52.218;5.158;2023-04-07T07:21:07;14.18;;;4.72;;
69754;SDS011;57023;52.218;5.158;2023-04-07T07:23:33;11.77;;;4.10;;
69754;SDS011;57023;52.218;5.158;2023-04-07T07:25:58;12.45;;;4.60;;
69754;SDS011;57023;52.218;5.158;2023-04-07T07:28:24;9.13;;;3.90;;
69754;SDS011;57023;52.218;5.158;2023-04-07T07:30:49;11.15;;;3.97;;
69754;SDS011;57023;52.218;5.158;2023-04-07T07:33:15;11.82;;;3.88;;
69754;SDS011;57023;52.218;5.158;2023-04-07T07:35:40;8.30;;;3.90;;
69754;SDS011;57023;52.218;5.158;2023-04-07T07:38:06;12.02;;;4.13;;
69754;SDS011;57023;52.218;5.158;2023-04-07T07:40:31;10.13;;;3.60;;
69754;SDS011;57023;52.218;5.158;2023-04-07T07:42:57;12.02;;;3.80;;
69754;SDS011;57023;52.218;5.158;2023-04-07T07:45:22;12.00;;;4.30;;
69754;SDS011;57023;52.218;5.158;2023-04-07T07:47:48;11.50;;;3.90;;
69754;SDS011;57023;52.218;5.158;2023-04-07T07:50:13;11.70;;;3.80;;
69754;SDS011;57023;52.218;5.158;2023-04-07T07:52:38;9.85;;;3.95;;
69754;SDS011;57023;52.218;5.158;2023-04-07T07:55:04;14.68;;;4.30;;
69754;SDS011;57023;52.218;5.158;2023-04-07T07:57:30;11.75;;;4.10;;
69754;SDS011;57023;52.218;5.158;2023-04-07T07:59:55;12.73;;;4.60;;
69754;SDS011;57023;52.218;5.158;2023-04-07T08:02:21;13.68;;;4.65;;
69754;SDS011;57023;52.218;5.158;2023-04-07T08:04:46;13.68;;;5.10;;
69754;SDS011;57023;52.218;5.158;2023-04-07T08:07:12;12.52;;;3.85;;
69754;SDS011;57023;52.218;5.158;2023-04-07T08:09:37;9.48;;;4.18;;
69754;SDS011;57023;52.218;5.158;2023-04-07T08:12:02;10.05;;;4.20;;
69754;SDS011;57023;52.218;5.158;2023-04-07T08:14:28;10.23;;;3.90;;
69754;SDS011;57023;52.218;5.158;2023-04-07T08:16:54;11.18;;;3.63;;
69754;SDS011;57023;52.218;5.158;2023-04-07T08:19:19;10.15;;;3.67;;
69754;SDS011;57023;52.218;5.158;2023-04-07T08:21:44;9.75;;;3.90;;
69754;SDS011;57023;52.218;5.158;2023-04-07T08:24:10;10.32;;;3.85;;
69754;SDS011;57023;52.218;5.158;2023-04-07T08:26:35;10.48;;;3.78;;
69754;SDS011;57023;52.218;5.158;2023-04-07T08:29:01;10.88;;;4.07;;
69754;SDS011;57023;52.218;5.158;2023-04-07T08:31:26;10.35;;;4.18;;
69754;SDS011;57023;52.218;5.158;2023-04-07T08:33:52;10.25;;;3.92;;
69754;SDS011;57023;52.218;5.158;2023-04-07T08:36:25;9.85;;;3.70;;
69754;SDS011;57023;52.218;5.158;2023-04-07T08:38:51;14.23;;;4.45;;
69754;SDS011;57023;52.218;5.158;2023-04-07T08:41:19;10.80;;;4.20;;
69754;SDS011;57023;52.218;5.158;2023-04-07T08:43:47;10.77;;;4.03;;
69754;SDS011;57023;52.218;5.158;2023-04-07T08:46:13;11.30;;;4.05;;
69754;SDS011;57023;52.218;5.158;2023-04-07T08:48:39;13.50;;;3.97;;
69754;SDS011;57023;52.218;5.158;2023-04-07T08:51:08;9.93;;;3.83;;
69754;SDS011;57023;52.218;5.158;2023-04-07T08:53:42;10.50;;;3.78;;
69754;SDS011;57023;52.218;5.158;2023-04-07T08:56:11;9.38;;;3.35;;
69754;SDS011;57023;52.218;5.158;2023-04-07T08:58:37;11.60;;;3.72;;
69754;SDS011;57023;52.218;5.158;2023-04-07T09:01:03;7.22;;;3.67;;
69754;SDS011;57023;52.218;5.158;2023-04-07T09:03:29;10.73;;;3.37;;
69754;SDS011;57023;52.218;5.158;2023-04-07T09:05:58;11.38;;;3.38;;
69754;SDS011;57023;52.218;5.158;2023-04-07T09:08:25;6.72;;;3.10;;
69754;SDS011;57023;52.218;5.158;2023-04-07T09:10:57;8.88;;;3.50;;
69754;SDS011;57023;52.218;5.158;2023-04-07T09:13:25;9.05;;;3.38;;
69754;SDS011;57023;52.218;5.158;2023-04-07T09:15:50;9.20;;;3.65;;
69754;SDS011;57023;52.218;5.158;2023-04-07T09:18:16;10.65;;;3.70;;
69754;SDS011;57023;52.218;5.158;2023-04-07T09:20:57;8.13;;;3.55;;
69754;SDS011;57023;52.218;5.158;2023-04-07T09:23:30;8.10;;;3.83;;
69754;SDS011;57023;52.218;5.158;2023-04-07T09:25:55;7.70;;;3.40;;
69754;SDS011;57023;52.218;5.158;2023-04-07T09:28:23;8.63;;;3.03;;
69754;SDS011;57023;52.218;5.158;2023-04-07T09:30:52;8.50;;;3.67;;
69754;SDS011;57023;52.218;5.158;2023-04-07T09:33:28;9.40;;;3.75;;
69754;SDS011;57023;52.218;5.158;2023-04-07T09:35:54;9.23;;;3.13;;
69754;SDS011;57023;52.218;5.158;2023-04-07T09:38:21;8.77;;;3.40;;
69754;SDS011;57023;52.218;5.158;2023-04-07T09:40:46;8.82;;;3.55;;
69754;SDS011;57023;52.218;5.158;2023-04-07T09:43:16;7.93;;;3.53;;
69754;SDS011;57023;52.218;5.158;2023-04-07T09:45:43;7.05;;;3.13;;
69754;SDS011;57023;52.218;5.158;2023-04-07T09:48:17;6.85;;;3.45;;
69754;SDS011;57023;52.218;5.158;2023-04-07T09:50:44;8.10;;;3.58;;
69754;SDS011;57023;52.218;5.158;2023-04-07T09:53:13;9.95;;;3.80;;
69754;SDS011;57023;52.218;5.158;2023-04-07T09:55:39;10.25;;;3.45;;
69754;SDS011;57023;52.218;5.158;2023-04-07T09:58:07;9.38;;;3.60;;
69754;SDS011;57023;52.218;5.158;2023-04-07T10:00:40;8.95;;;3.78;;
69754;SDS011;57023;52.218;5.158;2023-04-07T10:03:06;9.18;;;3.42;;
69754;SDS011;57023;52.218;5.158;2023-04-07T10:05:32;6.60;;;3.10;;
69754;SDS011;57023;52.218;5.158;2023-04-07T10:10:25;10.05;;;3.17;;
69754;SDS011;57023;52.218;5.158;2023-04-07T10:12:52;6.15;;;3.05;;
69754;SDS011;57023;52.218;5.158;2023-04-07T10:15:18;9.73;;;3.17;;
69754;SDS011;57023;52.218;5.158;2023-04-07T10:17:44;7.60;;;2.90;;
69754;SDS011;57023;52.218;5.158;2023-04-07T10:20:12;7.22;;;3.03;;
69754;SDS011;57023;52.218;5.158;2023-04-07T10:22:37;7.22;;;2.70;;
69754;SDS011;57023;52.218;5.158;2023-04-07T10:25:06;7.35;;;3.30;;
69754;SDS011;57023;52.218;5.158;2023-04-07T10:27:36;11.85;;;3.50;;
69754;SDS011;57023;52.218;5.158;2023-04-07T10:30:06;10.68;;;3.90;;
69754;SDS011;57023;52.218;5.158;2023-04-07T10:32:47;10.48;;;3.90;;
69754;SDS011;57023;52.218;5.158;2023-04-07T10:35:16;8.77;;;4.00;;
69754;SDS011;57023;52.218;5.158;2023-04-07T10:40:35;10.43;;;4.43;;
69754;SDS011;57023;52.218;5.158;2023-04-07T10:43:01;9.30;;;3.75;;
69754;SDS011;57023;52.218;5.158;2023-04-07T10:46:13;9.00;;;4.05;;
69754;SDS011;57023;52.218;5.158;2023-04-07T10:48:17;9.43;;;3.88;;
69754;SDS011;57023;52.218;5.158;2023-04-07T10:50:43;11.95;;;4.32;;
69754;SDS011;57023;52.218;5.158;2023-04-07T10:53:13;13.70;;;5.22;;
69754;SDS011;57023;52.218;5.158;2023-04-07T11:03:21;15.48;;;4.93;;
69754;SDS011;57023;52.218;5.158;2023-04-07T11:05:46;12.50;;;4.40;;
69754;SDS011;57023;52.218;5.158;2023-04-07T11:08:12;7.63;;;4.07;;
69754;SDS011;57023;52.218;5.158;2023-04-07T11:10:37;10.40;;;4.60;;
69754;SDS011;57023;52.218;5.158;2023-04-07T11:13:06;10.40;;;4.15;;
69754;SDS011;57023;52.218;5.158;2023-04-07T11:15:35;10.70;;;3.80;;
69754;SDS011;57023;52.218;5.158;2023-04-07T11:18:17;10.02;;;3.70;;
69754;SDS011;57023;52.218;5.158;2023-04-07T11:20:44;10.13;;;3.70;;
69754;SDS011;57023;52.218;5.158;2023-04-07T11:23:12;8.85;;;3.42;;
69754;SDS011;57023;52.218;5.158;2023-04-07T11:25:38;13.00;;;3.60;;
69754;SDS011;57023;52.218;5.158;2023-04-07T11:28:08;10.93;;;3.80;;
69754;SDS011;57023;52.218;5.158;2023-04-07T11:30:35;10.23;;;3.60;;
69754;SDS011;57023;52.218;5.158;2023-04-07T11:33:00;8.68;;;3.58;;
69754;SDS011;57023;52.218;5.158;2023-04-07T11:35:25;7.97;;;3.47;;
69754;SDS011;57023;52.218;5.158;2023-04-07T11:37:58;9.13;;;3.28;;
69754;SDS011;57023;52.218;5.158;2023-04-07T11:40:34;7.53;;;3.20;;
69754;SDS011;57023;52.218;5.158;2023-04-07T11:43:01;8.43;;;3.00;;
69754;SDS011;57023;52.218;5.158;2023-04-07T11:45:27;10.02;;;3.40;;
69754;SDS011;57023;52.218;5.158;2023-04-07T11:47:52;6.80;;;3.33;;
69754;SDS011;57023;52.218;5.158;2023-04-07T11:50:36;9.40;;;3.60;;
69754;SDS011;57023;52.218;5.158;2023-04-07T11:53:02;8.15;;;3.50;;
69754;SDS011;57023;52.218;5.158;2023-04-07T11:55:27;9.93;;;3.50;;
69754;SDS011;57023;52.218;5.158;2023-04-07T11:57:53;8.00;;;3.65;;
69754;SDS011;57023;52.218;5.158;2023-04-07T12:00:19;7.35;;;3.45;;
69754;SDS011;57023;52.218;5.158;2023-04-07T12:02:45;9.77;;;4.00;;
69754;SDS011;57023;52.218;5.158;2023-04-07T12:05:10;7.65;;;3.83;;
69754;SDS011;57023;52.218;5.158;2023-04-07T12:07:36;9.95;;;3.80;;
69754;SDS011;57023;52.218;5.158;2023-04-07T12:10:21;12.18;;;4.15;;
69754;SDS011;57023;52.218;5.158;2023-04-07T12:12:47;6.80;;;3.92;;
69754;SDS011;57023;52.218;5.158;2023-04-07T12:15:13;7.85;;;4.00;;
69754;SDS011;57023;52.218;5.158;2023-04-07T12:17:43;9.20;;;4.45;;
69754;SDS011;57023;52.218;5.158;2023-04-07T12:20:10;10.27;;;4.60;;
69754;SDS011;57023;52.218;5.158;2023-04-07T12:22:38;9.35;;;4.07;;
69754;SDS011;57023;52.218;5.158;2023-04-07T12:25:04;13.55;;;4.72;;
69754;SDS011;57023;52.218;5.158;2023-04-07T12:27:32;8.00;;;3.97;;
69754;SDS011;57023;52.218;5.158;2023-04-07T12:29:58;10.07;;;4.15;;
69754;SDS011;57023;52.218;5.158;2023-04-07T12:32:23;11.88;;;4.25;;
69754;SDS011;57023;52.218;5.158;2023-04-07T12:34:49;11.70;;;4.70;;
69754;SDS011;57023;52.218;5.158;2023-04-07T12:37:14;9.45;;;4.53;;
69754;SDS011;57023;52.218;5.158;2023-04-07T12:39:40;11.43;;;5.00;;
69754;SDS011;57023;52.218;5.158;2023-04-07T12:42:08;12.02;;;4.80;;
69754;SDS011;57023;52.218;5.158;2023-04-07T12:47:01;9.43;;;4.45;;
69754;SDS011;57023;52.218;5.158;2023-04-07T12:49:26;10.95;;;4.53;;
69754;SDS011;57023;52.218;5.158;2023-04-07T12:51:51;12.30;;;4.78;;
69754;SDS011;57023;52.218;5.158;2023-04-07T12:54:17;12.40;;;4.95;;
69754;SDS011;57023;52.218;5.158;2023-04-07T12:56:42;11.60;;;4.30;;
69754;SDS011;57023;52.218;5.158;2023-04-07T12:59:08;7.85;;;3.70;;
69754;SDS011;57023;52.218;5.158;2023-04-07T13:01:33;8.30;;;3.70;;
69754;SDS011;57023;52.218;5.158;2023-04-07T13:04:05;9.05;;;3.60;;
69754;SDS011;57023;52.218;5.158;2023-04-07T13:06:30;7.65;;;3.60;;
69754;SDS011;57023;52.218;5.158;2023-04-07T13:08:56;9.52;;;4.13;;
69754;SDS011;57023;52.218;5.158;2023-04-07T13:11:21;10.60;;;4.05;;
69754;SDS011;57023;52.218;5.158;2023-04-07T13:13:47;8.55;;;4.35;;
69754;SDS011;57023;52.218;5.158;2023-04-07T13:16:12;10.05;;;4.07;;
69754;SDS011;57023;52.218;5.158;2023-04-07T13:18:37;9.88;;;4.70;;
69754;SDS011;57023;52.218;5.158;2023-04-07T13:21:03;13.07;;;5.95;;
69754;SDS011;57023;52.218;5.158;2023-04-07T13:23:32;12.10;;;6.10;;
69754;SDS011;57023;52.218;5.158;2023-04-07T13:25:57;11.60;;;5.75;;
69754;SDS011;57023;52.218;5.158;2023-04-07T13:28:26;12.50;;;6.05;;
69754;SDS011;57023;52.218;5.158;2023-04-07T13:30:51;12.48;;;6.80;;
69754;SDS011;57023;52.218;5.158;2023-04-07T13:33:17;16.83;;;7.15;;
69754;SDS011;57023;52.218;5.158;2023-04-07T13:35:42;16.05;;;6.88;;
69754;SDS011;57023;52.218;5.158;2023-04-07T13:38:07;14.18;;;6.78;;
69754;SDS011;57023;52.218;5.158;2023-04-07T13:40:33;13.55;;;6.70;;
69754;SDS011;57023;52.218;5.158;2023-04-07T13:42:58;13.93;;;6.35;;
69754;SDS011;57023;52.218;5.158;2023-04-07T13:45:24;13.40;;;5.97;;
69754;SDS011;57023;52.218;5.158;2023-04-07T13:47:50;13.82;;;5.90;;
69754;SDS011;57023;52.218;5.158;2023-04-07T13:50:15;13.32;;;6.40;;
69754;SDS011;57023;52.218;5.158;2023-04-07T13:52:41;11.65;;;5.82;;
69754;SDS011;57023;52.218;5.158;2023-04-07T13:55:06;13.70;;;6.22;;
69754;SDS011;57023;52.218;5.158;2023-04-07T13:57:32;16.27;;;5.82;;
69754;SDS011;57023;52.218;5.158;2023-04-07T13:59:57;11.30;;;5.57;;
69754;SDS011;57023;52.218;5.158;2023-04-07T14:02:23;10.73;;;5.75;;
69754;SDS011;57023;52.218;5.158;2023-04-07T14:04:49;15.30;;;6.28;;
69754;SDS011;57023;52.218;5.158;2023-04-07T14:07:15;12.07;;;5.80;;
69754;SDS011;57023;52.218;5.158;2023-04-07T14:09:41;12.60;;;6.60;;
69754;SDS011;57023;52.218;5.158;2023-04-07T14:12:07;11.18;;;5.82;;
69754;SDS011;57023;52.218;5.158;2023-04-07T14:14:32;12.60;;;5.72;;
69754;SDS011;57023;52.218;5.158;2023-04-07T14:16:58;10.38;;;6.03;;
69754;SDS011;57023;52.218;5.158;2023-04-07T14:19:23;10.48;;;6.05;;
69754;SDS011;57023;52.218;5.158;2023-04-07T14:21:51;13.15;;;5.90;;
69754;SDS011;57023;52.218;5.158;2023-04-07T14:24:17;11.23;;;6.05;;
69754;SDS011;57023;52.218;5.158;2023-04-07T14:26:43;12.32;;;5.88;;
69754;SDS011;57023;52.218;5.158;2023-04-07T14:29:10;11.45;;;5.80;;
69754;SDS011;57023;52.218;5.158;2023-04-07T14:31:36;12.02;;;5.85;;
69754;SDS011;57023;52.218;5.158;2023-04-07T14:34:02;11.30;;;5.32;;
69754;SDS011;57023;52.218;5.158;2023-04-07T14:36:27;13.18;;;6.00;;
69754;SDS011;57023;52.218;5.158;2023-04-07T14:38:53;10.82;;;6.43;;
69754;SDS011;57023;52.218;5.158;2023-04-07T14:41:19;15.88;;;8.45;;
69754;SDS011;57023;52.218;5.158;2023-04-07T14:43:44;13.60;;;6.10;;
69754;SDS011;57023;52.218;5.158;2023-04-07T14:48:38;18.67;;;9.23;;
69754;SDS011;57023;52.218;5.158;2023-04-07T14:51:09;14.90;;;6.70;;
69754;SDS011;57023;52.218;5.158;2023-04-07T14:53:35;12.32;;;7.22;;
69754;SDS011;57023;52.218;5.158;2023-04-07T14:56:02;16.55;;;7.25;;
69754;SDS011;57023;52.218;5.158;2023-04-07T14:58:29;19.00;;;8.25;;
69754;SDS011;57023;52.218;5.158;2023-04-07T15:00:55;15.88;;;7.90;;
69754;SDS011;57023;52.218;5.158;2023-04-07T15:03:21;15.65;;;8.30;;
69754;SDS011;57023;52.218;5.158;2023-04-07T15:05:46;19.85;;;10.60;;